Main page
METAR-TAF:

METAR-TAF

Airports :

Kenneth Kaunda International Airport

Lusaka, Zambia

latitude: 15-19-51S, longitude: 028-27-09E, elevation: 1152 m

Current weather observation

The report was made 10 minutes ago, at 11:00 UTC
Wind 7 kt from the East
Temperature 26°C
Humidity 28%
Pressure 1023 hPa
Visibility 10 km or more
no clouds below 1500 m and no cumulonimbus

METAR: FLKK 141100Z 09007KT CAVOK 26/06 Q1023 NOSIG

Time: 13:10 (11:10 UTC)

Forecast

The report was made 7 hours and 10 minutes ago, at 04:00 UTC
Forecast valid from 14 at 06 UTC to 15 at 12 UTC
Wind 10 kt from the East
Visibility: 9000 m
haze
Becoming
from 14 at 12 UTC to 14 at 14 UTC
Wind 5 kt from the East
From 14 at 1600 UTC
Wind 5 kt from the East/Northeast
Visibility 10 km or more
no clouds below 1500 m and no cumulonimbus

TAF: FLKK 140400Z 1406/1512 09010KT 9000 HZ NSC BECMG 1412/1414 08005KT FM141600 07005KT CAVOK

Weather observations and forecasts of more than 4000 airports (METAR and TAF reports).

The available stations are represented by yellow and red dots on the map.

Hover mouse over dot to see the name of the station.

Then click to see weather observations and forecasts.

To change the map : click on the green buttons with a black cross to zoom in, on the green button with a dash to zoom out, or on the green arrows for adjacent maps.


METAR-TAF: